Time;durP1;ratioP1;P1;durP2;ratioP2;P2;SDS_P1;SDS_P2;PMS_P1;PMS_P2;Temp;Humidity;BMP_temperature;BMP_pressure;BME280_temperature;BME280_humidity;BME280_pressure;Samples;Min_cycle;Max_cycle;Signal;HPM_P1;HPM_P2
2022/06/23 00:00:33;;;;;;;;;23.00;21.67;;;;;22.79;64.64;100576.19;5014456;28;45517;-71
2022/06/23 00:03:01;;;;;;;;;22.33;20.67;;;;;22.59;65.13;100547.88;5015090;28;45430;-71
2022/06/23 00:05:33;;;;;;;;;24.33;21.33;;;;;22.76;64.88;100572.84;4996799;28;46719;-71
2022/06/23 00:08:00;;;;;;;;;23.33;21.33;;;;;22.71;64.79;100562.38;5014460;28;45495;-71
2022/06/23 00:10:43;;;;;;;;;21.67;20.00;;;;;22.57;65.18;100547.06;5014206;28;45562;-71
2022/06/23 00:13:33;;;;;;;;;28.67;23.67;;;;;22.57;65.46;100568.41;5017500;28;45455;-71
2022/06/23 00:15:59;;;;;;;;;22.00;22.00;;;;;22.51;65.76;100563.38;5001845;28;45537;-72
2022/06/23 00:18:32;;;;;;;;;26.33;23.00;;;;;22.48;65.97;100560.88;5014563;28;45895;-71
2022/06/23 00:21:05;;;;;;;;;23.33;18.00;;;;;22.44;66.18;100557.47;5001010;28;45420;-71
2022/06/23 00:23:31;;;;;;;;;25.33;23.00;;;;;22.45;66.16;100555.69;5019279;28;45331;-71
2022/06/23 00:26:06;;;;;;;;;24.00;20.00;;;;;22.47;66.17;100569.84;5015403;28;45628;-70
2022/06/23 00:28:32;;;;;;;;;25.33;20.67;;;;;22.47;66.65;100569.84;5015125;28;45480;-71
2022/06/23 00:31:01;;;;;;;;;18.33;18.33;;;;;22.33;66.71;100540.28;5018491;28;45256;-71
2022/06/23 00:33:45;;;;;;;;;21.33;20.00;;;;;22.41;66.74;100554.97;5016613;28;45378;-71
2022/06/23 00:36:18;;;;;;;;;22.67;22.67;;;;;22.45;67.43;100553.03;5013978;28;46108;-71
2022/06/23 00:38:45;;;;;;;;;21.67;21.00;;;;;22.30;67.67;100535.97;5017036;28;45284;-72
2022/06/23 00:41:17;;;;;;;;;20.33;20.33;;;;;22.43;67.56;100557.59;5017854;28;45442;-72
2022/06/23 00:43:48;;;;;;;;;23.00;21.00;;;;;22.41;67.53;100548.78;5018642;28;45324;-71
2022/06/23 00:46:42;;;;;;;;;21.00;19.00;;;;;22.39;67.64;100553.31;5018607;28;46193;-71
2022/06/23 00:49:24;;;;;;;;;21.67;20.33;;;;;22.43;67.76;100553.09;5018138;28;45573;-70
2022/06/23 00:52:02;;;;;;;;;23.00;22.00;;;;;22.52;67.90;100553.56;5018064;28;45439;-71
2022/06/23 00:54:41;;;;;;;;;22.67;21.33;;;;;22.52;67.50;100551.78;5016448;28;45403;-71
2022/06/23 00:57:20;;;;;;;;;25.33;21.67;;;;;22.55;67.79;100542.75;5013621;28;46078;-71
2022/06/23 01:00:19;;;;;;;;;22.00;21.67;;;;;22.44;68.36;100536.13;5013599;28;45727;-70
2022/06/23 01:02:52;;;;;;;;;22.67;20.00;;;;;22.47;68.22;100545.81;4996890;28;45409;-71
2022/06/23 01:05:23;;;;;;;;;21.33;21.33;;;;;22.51;68.56;100539.38;5013748;28;45653;-71
2022/06/23 01:07:58;;;;;;;;;25.33;23.00;;;;;22.54;68.02;100530.34;5013502;28;45800;-72
2022/06/23 01:10:29;;;;;;;;;22.00;18.00;;;;;22.49;68.33;100519.03;5013866;28;45769;-72
2022/06/23 01:13:04;;;;;;;;;19.67;18.33;;;;;22.50;67.92;100528.78;5012888;28;45316;-71
2022/06/23 01:15:38;;;;;;;;;19.67;19.33;;;;;22.43;67.21;100520.22;5016105;28;45494;-71
2022/06/23 01:18:19;;;;;;;;;22.33;21.33;;;;;22.46;67.66;100530.72;5014916;28;45493;-70
2022/06/23 01:20:58;;;;;;;;;22.00;20.67;;;;;22.28;67.74;100511.19;5012468;28;45878;-71
2022/06/23 01:23:42;;;;;;;;;25.00;21.00;;;;;22.41;67.98;100536.31;5013684;28;45477;-71
2022/06/23 01:26:25;;;;;;;;;21.67;19.00;;;;;22.42;67.63;100535.38;4999950;28;45685;-70
2022/06/23 01:29:26;;;;;;;;;23.00;20.00;;;;;22.44;66.94;100521.94;5014254;28;46014;-72
2022/06/23 01:32:21;;;;;;;;;24.33;24.00;;;;;22.31;67.08;100502.16;4986521;28;45577;-71
2022/06/23 01:34:50;;;;;;;;;24.67;23.67;;;;;22.37;68.37;100532.06;5015444;28;45582;-72
2022/06/23 01:37:34;;;;;;;;;27.33;25.33;;;;;22.32;68.40;100531.41;5018250;28;45501;-72
2022/06/23 01:40:20;;;;;;;;;22.67;22.33;;;;;22.25;68.05;100539.81;5022486;28;46075;-71
2022/06/23 01:43:00;;;;;;;;;22.33;21.00;;;;;22.26;67.90;100533.53;5021628;28;45515;-70
2022/06/23 01:45:32;;;;;;;;;21.67;20.00;;;;;22.27;67.49;100525.47;5022123;28;45415;-70
2022/06/23 01:51:32;;;;;;;;;24.67;24.67;;;;;22.23;67.16;100516.75;5016134;28;45264;-72
2022/06/23 01:54:54;;;;;;;;;25.33;25.33;;;;;22.22;67.57;100536.34;5021929;28;45472;-72
2022/06/23 01:57:43;;;;;;;;;27.00;27.00;;;;;22.24;67.35;100541.63;5018999;28;45406;-71
2022/06/23 02:00:15;;;;;;;;;25.67;24.33;;;;;22.11;67.32;100519.97;5017200;28;45510;-70
2022/06/23 02:02:52;;;;;;;;;28.33;27.67;;;;;22.10;67.77;100528.94;5016897;28;46127;-71
2022/06/23 02:05:29;;;;;;;;;33.67;31.33;;;;;22.06;67.29;100523.81;5016230;28;45377;-74
2022/06/23 02:08:01;;;;;;;;;26.67;24.00;;;;;22.05;67.45;100524.78;5016923;28;45717;-72
2022/06/23 02:10:52;;;;;;;;;26.33;26.00;;;;;22.06;66.96;100527.34;5016902;28;45505;-71
2022/06/23 02:13:25;;;;;;;;;32.67;31.33;;;;;22.03;67.75;100531.03;5014953;28;45458;-72
2022/06/23 02:16:14;;;;;;;;;32.33;28.67;;;;;21.83;67.59;100532.94;5016630;28;45744;-72
2022/06/23 02:19:08;;;;;;;;;30.00;30.00;;;;;21.80;67.83;100520.63;5016680;28;45400;-72
2022/06/23 02:21:44;;;;;;;;;32.00;27.67;;;;;21.71;68.05;100500.63;4998698;28;45316;-72
2022/06/23 02:24:18;;;;;;;;;33.33;30.67;;;;;21.73;68.73;100528.03;5016317;28;45482;-71
2022/06/23 02:27:02;;;;;;;;;29.33;27.00;;;;;21.71;68.86;100524.59;5019471;28;45308;-74
2022/06/23 02:29:45;;;;;;;;;25.00;24.33;;;;;21.65;67.88;100500.03;5015176;28;45453;-72
2022/06/23 02:32:16;;;;;;;;;25.67;25.00;;;;;21.76;68.49;100508.41;5016212;28;45641;-72
2022/06/23 02:35:06;;;;;;;;;29.33;29.33;;;;;21.65;69.09;100497.38;5015756;28;45545;-72
2022/06/23 02:37:44;;;;;;;;;33.50;31.50;;;;;21.67;69.36;100520.34;5015269;28;45830;-71
2022/06/23 02:40:36;;;;;;;;;25.67;23.67;;;;;21.59;70.04;100519.84;5015465;28;45522;-71
2022/06/23 02:43:17;;;;;;;;;28.00;25.67;;;;;21.62;70.05;100519.72;4991928;28;45344;-71
2022/06/23 02:46:09;;;;;;;;;19.67;19.67;;;;;21.57;69.82;100522.59;5014619;28;45682;-72
2022/06/23 02:49:00;;;;;;;;;11.33;11.00;;;;;21.48;70.11;100515.03;5019131;28;45463;-72
2022/06/23 02:51:49;;;;;;;;;10.33;9.00;;;;;21.54;70.09;100517.38;5010477;28;45450;-71
2022/06/23 02:54:57;;;;;;;;;9.33;8.00;;;;;21.52;69.66;100521.94;5012800;28;45481;-72
2022/06/23 02:57:36;;;;;;;;;8.67;6.00;;;;;21.53;69.31;100523.66;5014404;28;47450;-71
2022/06/23 03:00:35;;;;;;;;;5.67;5.67;;;;;21.38;69.50;100508.38;5017768;28;45400;-71
2022/06/23 03:03:14;;;;;;;;;6.00;5.00;;;;;21.30;69.29;100499.84;5002216;28;45986;-71
2022/06/23 03:05:45;;;;;;;;;6.00;6.00;;;;;21.46;68.65;100526.69;5003637;28;45503;-70
2022/06/23 03:08:23;;;;;;;;;6.67;5.00;;;;;21.45;68.96;100524.94;5015941;28;46202;-71
2022/06/23 03:11:19;;;;;;;;;6.00;4.67;;;;;21.43;68.36;100522.38;5002903;28;45462;-71
2022/06/23 03:13:50;;;;;;;;;5.33;4.00;;;;;21.47;67.91;100536.41;5016548;28;45675;-70
2022/06/23 03:16:26;;;;;;;;;4.00;4.00;;;;;21.44;67.85;100537.41;5020183;28;45820;-70
2022/06/23 03:19:08;;;;;;;;;5.00;4.00;;;;;21.31;67.65;100522.91;5016001;28;46062;-71
2022/06/23 03:21:50;;;;;;;;;4.67;4.67;;;;;21.49;67.64;100545.19;4997292;28;46173;-71
2022/06/23 03:24:29;;;;;;;;;4.00;3.00;;;;;21.48;67.33;100540.81;5015869;28;45464;-71
2022/06/23 03:27:11;;;;;;;;;3.00;3.00;;;;;21.46;67.59;100537.34;5019707;28;45396;-71
2022/06/23 03:29:50;;;;;;;;;5.00;3.00;;;;;21.42;67.35;100530.44;5014260;28;45531;-71
2022/06/23 03:32:28;;;;;;;;;5.00;4.00;;;;;21.57;67.16;100546.56;5010222;28;45605;-69
2022/06/23 03:35:03;;;;;;;;;3.00;3.00;;;;;21.63;66.85;100541.88;5014942;28;45613;-69
2022/06/23 03:37:51;;;;;;;;;2.00;2.00;;;;;21.64;67.01;100554.25;5015130;28;45523;-71
2022/06/23 03:43:31;;;;;;;;;6.33;5.00;;;;;21.84;66.08;100561.34;5014540;28;45443;-70
2022/06/23 03:46:24;;;;;;;;;5.00;4.00;;;;;21.72;65.60;100534.31;5017540;28;45237;-71
2022/06/23 03:48:58;;;;;;;;;4.00;4.00;;;;;21.94;65.28;100571.47;5019091;28;45292;-71
2022/06/23 03:51:39;;;;;;;;;5.00;5.00;;;;;21.81;65.39;100555.22;5014541;28;46301;-70
2022/06/23 03:54:09;;;;;;;;;4.00;4.00;;;;;21.94;64.85;100582.13;5016520;28;45439;-70
2022/06/23 03:56:42;;;;;;;;;7.00;5.00;;;;;21.95;64.74;100570.56;5016094;28;45624;-72
2022/06/23 03:59:21;;;;;;;;;4.00;4.00;;;;;22.04;64.45;100585.22;5015579;28;45431;-70
2022/06/23 04:02:03;;;;;;;;;5.00;3.00;;;;;22.10;64.04;100576.09;5015821;28;45716;-70
2022/06/23 04:04:47;;;;;;;;;2.33;2.33;;;;;22.14;63.93;100580.31;5016883;28;45414;-71
2022/06/23 04:07:28;;;;;;;;;7.33;5.00;;;;;22.09;63.95;100580.56;5012469;28;45616;-71
2022/06/23 04:10:06;;;;;;;;;7.67;4.00;;;;;22.04;64.26;100582.56;5015032;28;45725;-71
2022/06/23 04:12:37;;;;;;;;;6.00;4.00;;;;;21.99;64.14;100585.44;5006953;28;47554;-71
2022/06/23 04:15:34;;;;;;;;;5.67;4.00;;;;;21.97;64.27;100591.78;5014036;28;45498;-71
2022/06/23 04:18:08;;;;;;;;;5.67;4.00;;;;;21.80;64.22;100564.13;5014668;28;45387;-69
2022/06/23 04:20:47;;;;;;;;;5.00;5.00;;;;;21.94;64.31;100603.47;5013955;28;45569;-71
2022/06/23 04:23:22;;;;;;;;;5.67;4.00;;;;;21.96;64.61;100590.94;5010462;28;46133;-71
2022/06/23 04:26:07;;;;;;;;;5.67;4.00;;;;;21.95;64.65;100589.22;4991603;28;45488;-71
2022/06/23 04:28:41;;;;;;;;;2.33;2.33;;;;;21.90;64.48;100601.03;5014787;28;45491;-70
2022/06/23 04:31:07;;;;;;;;;6.00;3.00;;;;;21.86;64.65;100600.31;5017105;28;45495;-71
2022/06/23 04:33:39;;;;;;;;;3.33;3.33;;;;;21.67;64.74;100584.31;5014016;28;45934;-71
2022/06/23 04:36:05;;;;;;;;;5.00;5.00;;;;;21.74;64.77;100615.09;5017336;28;45595;-70
2022/06/23 04:38:37;;;;;;;;;5.00;5.00;;;;;21.74;65.19;100608.88;5018210;28;45854;-71
2022/06/23 04:41:24;;;;;;;;;3.00;3.00;;;;;21.79;64.95;100609.53;5008051;28;45878;-71
2022/06/23 04:43:55;;;;;;;;;5.00;5.00;;;;;21.81;65.03;100603.19;5016438;28;46170;-71
2022/06/23 04:46:45;;;;;;;;;2.00;2.00;;;;;21.77;64.85;100614.94;5015144;28;45447;-71
2022/06/23 04:49:47;;;;;;;;;3.00;3.00;;;;;21.68;64.84;100617.16;5014948;28;46192;-70
2022/06/23 04:52:13;;;;;;;;;5.67;4.00;;;;;21.59;65.09;100603.34;5004074;28;45444;-70
2022/06/23 04:54:50;;;;;;;;;4.00;4.00;;;;;21.61;64.78;100600.56;4996654;28;45521;-69
2022/06/23 04:57:30;;;;;;;;;7.00;4.00;;;;;21.76;64.61;100607.88;5013981;28;45348;-70
2022/06/23 05:00:00;;;;;;;;;4.00;4.00;;;;;21.81;64.84;100610.34;5014343;28;45855;-70
2022/06/23 05:02:49;;;;;;;;;5.33;4.00;;;;;21.84;64.48;100612.00;5008430;28;45460;-69
2022/06/23 05:05:22;;;;;;;;;5.67;5.67;;;;;21.70;64.83;100609.97;5012816;28;45534;-69
2022/06/23 05:08:06;;;;;;;;;4.67;4.67;;;;;21.60;65.13;100615.72;5002196;28;45669;-69
2022/06/23 05:10:49;;;;;;;;;4.00;4.00;;;;;21.58;65.11;100612.25;5002777;28;45481;-70
2022/06/23 05:13:29;;;;;;;;;4.33;4.33;;;;;21.49;65.34;100609.13;5013848;28;45381;-70
2022/06/23 05:16:05;;;;;;;;;4.00;4.00;;;;;21.57;65.19;100628.31;5013011;28;45916;-70
2022/06/23 05:18:46;;;;;;;;;5.33;4.00;;;;;21.57;65.30;100621.19;5014250;28;45385;-69
2022/06/23 05:21:28;;;;;;;;;6.00;4.67;;;;;21.58;65.14;100622.91;5017965;28;45589;-70
2022/06/23 05:24:02;;;;;;;;;6.00;6.00;;;;;21.54;64.50;100609.78;4997029;28;45570;-69
2022/06/23 05:26:40;;;;;;;;;4.00;4.00;;;;;21.46;64.38;100604.81;5013427;28;46058;-70
2022/06/23 05:29:26;;;;;;;;;5.00;5.00;;;;;21.51;64.24;100621.47;5008095;28;45628;-70
2022/06/23 05:32:27;;;;;;;;;3.33;3.33;;;;;21.63;64.20;100637.84;5013356;28;45504;-72
2022/06/23 05:35:06;;;;;;;;;6.00;6.00;;;;;21.62;63.72;100623.66;5004930;28;45695;-70
2022/06/23 05:37:42;;;;;;;;;3.33;3.33;;;;;21.85;63.20;100621.69;5009793;28;46246;-72
2022/06/23 05:40:33;;;;;;;;;4.00;4.00;;;;;22.11;62.07;100628.47;5002871;28;45461;-71
2022/06/23 05:43:02;;;;;;;;;5.00;5.00;;;;;21.98;61.48;100591.72;5012014;28;45791;-70
2022/06/23 05:45:41;;;;;;;;;5.00;4.00;;;;;22.14;60.82;100606.97;5013078;28;45914;-70
2022/06/23 05:48:11;;;;;;;;;4.33;4.33;;;;;22.40;60.16;100619.09;5012718;28;45356;-70
2022/06/23 05:50:49;;;;;;;;;7.33;6.67;;;;;22.47;59.61;100611.66;5015274;28;45498;-69
2022/06/23 05:53:35;;;;;;;;;7.00;5.33;;;;;22.60;59.22;100610.09;5014394;28;45463;-70
2022/06/23 05:56:20;;;;;;;;;7.33;7.33;;;;;22.68;58.65;100593.69;5013783;28;45672;-70
2022/06/23 05:58:54;;;;;;;;;9.00;6.00;;;;;22.80;57.83;100595.75;5010083;28;46789;-69
2022/06/23 06:01:26;;;;;;;;;7.00;6.00;;;;;22.93;58.06;100604.00;5014312;28;45442;-70
2022/06/23 06:03:57;;;;;;;;;6.00;6.00;;;;;23.07;57.71;100614.88;5013085;28;45486;-70
2022/06/23 06:06:22;;;;;;;;;9.33;8.00;;;;;23.11;57.65;100611.06;5013457;28;45427;-70
2022/06/23 06:11:48;;;;;;;;;8.00;5.67;;;;;23.08;57.67;100611.25;5012830;28;45370;-69
2022/06/23 06:14:17;;;;;;;;;6.67;6.67;;;;;23.14;57.37;100612.75;5013577;28;45357;-70
2022/06/23 06:16:43;;;;;;;;;7.00;7.00;;;;;23.12;57.43;100603.94;5015847;28;45312;-68
2022/06/23 06:19:17;;;;;;;;;6.00;6.00;;;;;23.06;56.95;100591.75;5017776;28;45360;-71
2022/06/23 06:21:44;;;;;;;;;10.00;6.67;;;;;23.15;57.27;100609.13;5018666;28;45513;-71
2022/06/23 06:24:38;;;;;;;;;6.67;6.00;;;;;23.05;57.38;100592.72;5016763;28;45902;-71
2022/06/23 06:27:09;;;;;;;;;7.00;7.00;;;;;23.19;57.43;100616.91;5019468;28;45449;-71
2022/06/23 06:29:39;;;;;;;;;6.33;5.33;;;;;23.32;56.99;100601.06;5019781;28;45359;-69
2022/06/23 06:32:33;;;;;;;;;8.67;7.00;;;;;23.41;56.75;100595.22;5016964;28;45721;-73
2022/06/23 06:35:25;;;;;;;;;8.33;8.00;;;;;23.49;56.26;100587.69;5016104;28;45586;-72
2022/06/23 06:37:56;;;;;;;;;8.00;6.67;;;;;23.64;55.78;100611.84;5003034;28;45439;-70
2022/06/23 06:40:21;;;;;;;;;7.33;7.33;;;;;23.58;55.35;100588.97;5015889;28;46433;-71
2022/06/23 06:42:58;;;;;;;;;7.00;7.00;;;;;23.69;55.45;100596.41;5016067;28;45845;-72
2022/06/23 06:45:29;;;;;;;;;5.00;4.67;;;;;23.80;54.77;100604.75;5015842;28;45561;-72
2022/06/23 06:47:55;;;;;;;;;6.33;5.00;;;;;23.91;54.61;100604.13;5017325;28;45234;-71
2022/06/23 06:50:31;;;;;;;;;6.00;6.00;;;;;23.94;53.77;100611.97;5018777;28;46647;-72
2022/06/23 06:52:59;;;;;;;;;6.33;5.00;;;;;24.00;53.14;100606.31;5017400;28;45434;-73
2022/06/23 06:55:26;;;;;;;;;10.00;7.67;;;;;24.05;53.57;100612.25;5016364;28;45477;-73
2022/06/23 06:58:01;;;;;;;;;7.67;7.67;;;;;23.86;53.63;100616.91;5015941;28;45512;-70
2022/06/23 07:00:35;;;;;;;;;8.33;8.00;;;;;23.92;53.99;100617.44;5016299;28;46399;-70
2022/06/23 07:03:06;;;;;;;;;9.33;7.67;;;;;23.98;53.90;100623.38;5019083;28;45523;-70
2022/06/23 07:05:51;;;;;;;;;10.00;8.00;;;;;23.86;53.95;100622.25;5003830;28;45490;-72
2022/06/23 07:08:24;;;;;;;;;9.67;9.67;;;;;23.75;54.13;100611.28;5012288;28;45347;-70
2022/06/23 07:11:09;;;;;;;;;9.00;7.67;;;;;23.81;54.49;100602.94;5015387;28;46191;-70
2022/06/23 07:13:42;;;;;;;;;12.00;8.33;;;;;23.79;54.12;100611.03;5015273;28;45616;-71
2022/06/23 07:16:20;;;;;;;;;8.00;7.00;;;;;23.90;53.54;100613.13;5017735;28;45376;-71
2022/06/23 07:18:51;;;;;;;;;8.67;8.33;;;;;23.86;54.10;100625.78;5019321;28;45403;-74
2022/06/23 07:21:31;;;;;;;;;8.33;7.00;;;;;23.91;53.63;100606.81;5008599;28;46012;-69
2022/06/23 07:24:16;;;;;;;;;8.33;7.00;;;;;24.13;53.34;100627.88;5018812;28;45568;-69
2022/06/23 07:26:51;;;;;;;;;7.33;6.33;;;;;24.23;52.95;100617.53;5013459;28;45479;-70
2022/06/23 07:29:40;;;;;;;;;7.33;7.33;;;;;24.39;52.49;100625.53;5015436;28;45419;-71
2022/06/23 07:32:16;;;;;;;;;7.00;7.00;;;;;24.43;52.34;100625.28;5014720;28;45562;-70
2022/06/23 07:34:49;;;;;;;;;10.00;6.33;;;;;24.45;51.99;100630.53;4997018;28;45413;-71
2022/06/23 07:37:39;;;;;;;;;8.33;8.00;;;;;24.52;52.07;100632.81;5018284;28;45324;-72
2022/06/23 07:40:11;;;;;;;;;7.33;7.33;;;;;24.42;51.48;100628.91;5018852;28;45399;-69
2022/06/23 07:42:51;;;;;;;;;9.33;9.33;;;;;24.33;51.79;100634.78;5014889;28;45370;-71
2022/06/23 07:45:28;;;;;;;;;9.67;8.33;;;;;24.03;52.28;100638.22;5016020;28;45490;-70
2022/06/23 07:47:54;;;;;;;;;8.33;8.33;;;;;24.10;52.41;100630.72;5012560;28;45454;-71
2022/06/23 07:50:20;;;;;;;;;7.33;7.33;;;;;24.25;52.24;100632.56;5014501;28;45415;-71
2022/06/23 07:52:48;;;;;;;;;7.00;7.00;;;;;24.37;51.78;100633.66;5015207;28;45335;-71
2022/06/23 07:55:27;;;;;;;;;8.33;8.00;;;;;24.38;51.41;100635.38;4998977;28;45888;-72
2022/06/23 07:57:54;;;;;;;;;10.00;9.00;;;;;24.44;51.47;100632.38;5014619;28;45521;-72
2022/06/23 08:00:20;;;;;;;;;9.00;8.67;;;;;24.43;51.20;100632.44;5018224;28;45335;-71
2022/06/23 08:02:52;;;;;;;;;7.00;7.00;;;;;24.51;51.69;100627.53;5014375;28;45949;-72
2022/06/23 08:05:24;;;;;;;;;8.67;7.33;;;;;24.49;51.21;100608.91;5001069;28;45349;-70
2022/06/23 08:07:50;;;;;;;;;9.33;7.33;;;;;24.55;50.83;100613.88;5014856;28;45514;-72
2022/06/23 08:10:29;;;;;;;;;13.00;11.00;;;;;24.66;50.96;100620.44;5017398;28;45563;-69
2022/06/23 08:13:02;;;;;;;;;9.00;8.00;;;;;24.64;50.36;100628.56;5018955;28;45612;-70
2022/06/23 08:18:40;;;;;;;;;7.67;7.00;;;;;24.31;51.15;100629.50;5017147;28;45783;-70
2022/06/23 08:21:08;;;;;;;;;7.00;7.00;;;;;24.43;50.86;100635.97;5015596;28;45478;-71
2022/06/23 08:23:47;;;;;;;;;6.00;6.00;;;;;24.36;51.03;100623.91;5017190;28;46611;-69
2022/06/23 08:26:16;;;;;;;;;9.67;9.67;;;;;24.53;50.44;100631.84;5024550;28;45467;-70
2022/06/23 08:28:44;;;;;;;;;10.00;7.00;;;;;24.53;50.32;100609.56;5012933;28;46002;-72
2022/06/23 08:31:10;;;;;;;;;11.00;8.00;;;;;24.49;50.27;100627.63;5017262;28;45522;-71
2022/06/23 08:33:35;;;;;;;;;7.33;7.33;;;;;24.44;50.71;100613.63;5017116;28;46662;-69
2022/06/23 08:36:11;;;;;;;;;7.00;7.00;;;;;24.55;50.49;100627.25;5017453;28;45466;-72
2022/06/23 08:38:47;;;;;;;;;3.00;3.00;;;;;24.66;50.32;100623.97;5014113;28;45488;-69
2022/06/23 08:41:23;;;;;;;;;8.00;8.00;;;;;24.51;49.41;100620.38;5014989;28;45448;-69
2022/06/23 08:44:00;;;;;;;;;9.00;9.00;;;;;24.55;50.25;100629.94;5013564;28;47630;-70
2022/06/23 08:46:54;;;;;;;;;11.00;8.00;;;;;24.75;49.58;100604.69;5015525;28;45309;-70
2022/06/23 08:49:33;;;;;;;;;7.67;7.00;;;;;25.08;49.85;100613.47;5015359;28;45461;-70
2022/06/23 08:52:23;;;;;;;;;9.33;8.33;;;;;25.26;49.02;100623.09;5015919;28;45463;-72
2022/06/23 08:55:04;;;;;;;;;8.33;8.33;;;;;25.16;47.76;100617.41;5005690;28;46615;-69
2022/06/23 08:57:37;;;;;;;;;9.00;8.33;;;;;25.08;48.43;100621.50;5018796;28;45384;-70
2022/06/23 09:00:16;;;;;;;;;7.00;7.00;;;;;25.04;48.43;100630.69;5016582;28;46193;-70
2022/06/23 09:03:14;;;;;;;;;9.33;7.33;;;;;25.22;48.82;100629.59;5015367;28;45726;-70
2022/06/23 09:05:54;;;;;;;;;7.67;7.67;;;;;25.41;48.27;100618.59;5003748;28;46434;-72
2022/06/23 09:08:42;;;;;;;;;7.33;7.33;;;;;25.51;47.62;100611.72;5013818;28;45716;-69
2022/06/23 09:11:30;;;;;;;;;10.67;8.33;;;;;25.50;47.70;100596.56;5014156;28;45578;-72
2022/06/23 09:14:15;;;;;;;;;8.67;8.00;;;;;25.69;47.25;100617.75;5001684;28;45467;-69
2022/06/23 09:16:46;;;;;;;;;7.67;7.67;;;;;25.80;47.78;100619.75;5013881;28;45698;-69
2022/06/23 09:19:18;;;;;;;;;9.33;8.33;;;;;25.67;47.60;100614.28;5014313;28;45272;-72
2022/06/23 09:21:49;;;;;;;;;9.00;9.00;;;;;25.55;47.91;100618.59;5014111;28;45498;-70
2022/06/23 09:24:34;;;;;;;;;11.67;10.00;;;;;25.46;47.45;100611.16;5014186;28;45307;-70
2022/06/23 09:27:14;;;;;;;;;9.67;9.67;;;;;25.17;47.93;100603.06;5013870;28;45403;-70
2022/06/23 09:29:53;;;;;;;;;7.67;7.33;;;;;25.24;48.39;100608.91;5014489;28;45483;-70
2022/06/23 09:32:50;;;;;;;;;11.00;8.00;;;;;25.43;48.06;100605.09;5013607;28;45398;-70
2022/06/23 09:35:42;;;;;;;;;10.00;8.67;;;;;25.57;47.97;100607.78;5013533;28;45901;-68
2022/06/23 09:38:42;;;;;;;;;8.00;8.00;;;;;25.66;47.62;100604.53;5016666;28;45437;-70
2022/06/23 09:41:22;;;;;;;;;7.33;7.33;;;;;25.70;47.79;100602.50;5013104;28;45938;-71
2022/06/23 09:43:48;;;;;;;;;9.67;8.33;;;;;25.84;47.61;100610.56;5013498;28;45509;-69
2022/06/23 09:46:39;;;;;;;;;9.00;9.00;;;;;25.90;47.86;100603.97;5013799;28;45300;-69
2022/06/23 09:49:22;;;;;;;;;12.33;10.33;;;;;25.60;48.16;100600.44;5013415;28;45509;-71
2022/06/23 09:52:06;;;;;;;;;9.00;9.00;;;;;25.80;47.54;100607.19;5005078;28;45450;-69
2022/06/23 09:55:08;;;;;;;;;9.00;9.00;;;;;25.93;46.99;100609.97;5000961;28;45618;-71
2022/06/23 09:57:55;;;;;;;;;9.00;9.00;;;;;25.78;47.10;100608.25;5017857;28;45724;-72
2022/06/23 10:00:34;;;;;;;;;8.33;8.33;;;;;25.73;47.66;100611.22;5006831;28;45805;-69
2022/06/23 10:03:02;;;;;;;;;8.67;8.67;;;;;25.82;47.66;100604.44;5016734;28;45529;-71
2022/06/23 10:05:55;;;;;;;;;8.67;8.67;;;;;25.91;46.68;100603.00;5017001;28;45284;-70
2022/06/23 10:08:39;;;;;;;;;11.33;10.00;;;;;25.90;46.66;100604.81;5016444;28;45272;-70
2022/06/23 10:11:16;;;;;;;;;12.33;9.67;;;;;25.95;46.04;100608.06;5014944;28;45439;-73
2022/06/23 10:14:00;;;;;;;;;11.67;10.00;;;;;25.98;46.70;100605.22;5016670;28;45379;-72
2022/06/23 10:16:53;;;;;;;;;10.67;9.00;;;;;25.99;45.91;100611.44;5015001;28;45537;-73
2022/06/23 10:19:51;;;;;;;;;9.67;8.00;;;;;25.65;46.54;100549.19;5006405;28;45388;-71
2022/06/23 10:22:28;;;;;;;;;11.00;8.00;;;;;26.11;46.09;100594.53;5015711;28;45500;-71
2022/06/23 10:25:17;;;;;;;;;9.00;9.00;;;;;26.09;45.99;100606.31;5015841;28;45791;-72
2022/06/23 10:28:01;;;;;;;;;10.00;10.00;;;;;26.12;46.95;100584.63;5007545;28;45357;-69
2022/06/23 10:30:40;;;;;;;;;10.00;10.00;;;;;26.36;45.92;100593.78;5015843;28;45516;-74
2022/06/23 10:33:30;;;;;;;;;9.67;8.33;;;;;26.48;45.25;100594.78;5016180;28;45563;-71
2022/06/23 10:36:02;;;;;;;;;9.00;9.00;;;;;26.63;44.87;100591.09;5016613;28;45377;-69
2022/06/23 10:38:34;;;;;;;;;8.67;8.00;;;;;26.64;45.03;100595.50;5016090;28;45780;-69
2022/06/23 10:41:21;;;;;;;;;11.33;11.33;;;;;26.55;44.90;100558.53;5002126;28;45688;-73
2022/06/23 10:44:13;;;;;;;;;10.33;8.67;;;;;26.77;43.68;100592.84;5018528;28;46214;-71
2022/06/23 10:46:51;;;;;;;;;11.67;8.67;;;;;26.76;44.28;100587.56;5016241;28;45554;-69
2022/06/23 10:49:23;;;;;;;;;15.33;10.67;;;;;26.96;43.44;100589.75;5015713;28;46109;-69
2022/06/23 10:52:40;;;;;;;;;8.67;8.67;;;;;27.00;43.69;100577.84;5017352;28;45439;-70
2022/06/23 10:55:06;;;;;;;;;10.00;9.00;;;;;26.98;43.19;100581.56;4973787;28;46394;-70
2022/06/23 10:58:09;;;;;;;;;10.33;9.00;;;;;26.86;43.21;100572.53;5011104;28;45844;-73
2022/06/23 11:00:57;;;;;;;;;9.50;9.00;;;;;26.80;44.37;100557.69;5016121;28;45476;-71
2022/06/23 11:03:51;;;;;;;;;9.00;8.00;;;;;27.13;43.55;100582.34;5014564;28;45613;-71
2022/06/23 11:06:46;;;;;;;;;10.00;9.67;;;;;27.05;42.61;100586.44;5013015;28;45415;-69
2022/06/23 11:09:43;;;;;;;;;12.00;10.67;;;;;26.94;42.85;100580.09;5016188;28;45332;-71
2022/06/23 11:12:25;;;;;;;;;10.00;10.00;;;;;26.95;42.52;100571.03;5005737;28;45356;-73
2022/06/23 11:14:59;;;;;;;;;9.75;7.25;;;;;27.14;42.88;100565.25;5009938;28;45575;-72
2022/06/23 11:17:34;;;;;;;;;10.25;9.50;;;;;27.35;42.56;100579.03;5016645;28;45547;-76
2022/06/23 11:20:18;;;;;;;;;13.33;9.33;;;;;27.39;42.41;100572.50;5013227;28;45395;-74
2022/06/23 11:23:00;;;;;;;;;11.00;9.67;;;;;27.33;42.40;100564.84;5002042;28;46688;-73
2022/06/23 11:26:10;;;;;;;;;8.67;8.67;;;;;27.22;42.37;100565.63;5014062;28;45318;-74
2022/06/23 11:29:06;;;;;;;;;8.33;8.33;;;;;27.31;42.50;100558.72;4998764;28;46151;-71
2022/06/23 11:31:50;;;;;;;;;7.00;7.00;;;;;27.59;42.01;100561.13;4993605;28;45426;-71
2022/06/23 11:35:01;;;;;;;;;9.75;9.75;;;;;27.69;41.18;100562.22;4989505;28;45417;-71
2022/06/23 11:37:40;;;;;;;;;8.33;8.33;;;;;27.39;41.65;100535.69;5007291;28;45691;-71
2022/06/23 11:40:06;;;;;;;;;10.25;10.25;;;;;27.53;41.37;100553.53;5025823;28;46176;-70
2022/06/23 11:42:38;;;;;;;;;10.00;9.00;;;;;27.55;41.65;100548.03;5026161;28;45457;-69
2022/06/23 11:45:42;;;;;;;;;6.75;6.75;;;;;27.73;40.95;100559.28;5013493;28;45759;-72
2022/06/23 11:48:33;;;;;;;;;8.75;8.25;;;;;27.86;40.79;100547.56;5028669;28;45423;-73
2022/06/23 11:51:04;;;;;;;;;9.75;8.25;;;;;27.92;39.72;100548.94;5026697;28;46186;-72
2022/06/23 11:53:50;;;;;;;;;9.00;8.25;;;;;27.97;40.52;100533.28;5016875;28;45419;-69
2022/06/23 11:56:43;;;;;;;;;11.75;11.25;;;;;28.12;40.36;100534.84;5011088;28;45750;-70
2022/06/23 11:59:47;;;;;;;;;9.00;9.00;;;;;28.24;40.13;100535.78;5009415;28;45472;-70
2022/06/23 12:02:13;;;;;;;;;9.50;9.00;;;;;28.12;40.07;100509.78;4996570;28;45527;-72
2022/06/23 12:05:29;;;;;;;;;8.25;8.25;;;;;28.45;39.45;100529.72;5009710;28;45699;-71
2022/06/23 12:07:57;;;;;;;;;7.00;7.00;;;;;28.56;39.52;100519.00;5006312;28;46008;-72
2022/06/23 12:10:27;;;;;;;;;7.50;6.25;;;;;28.64;39.06;100510.31;5010515;28;46530;-71
2022/06/23 12:13:01;;;;;;;;;8.00;8.00;;;;;28.47;39.33;100508.94;5010394;28;45613;-73
2022/06/23 12:15:47;;;;;;;;;9.50;9.50;;;;;28.35;38.58;100499.94;4992497;28;45464;-72
2022/06/23 12:18:31;;;;;;;;;9.50;9.50;;;;;28.21;39.26;100476.75;5011050;28;45894;-72
2022/06/23 12:21:30;;;;;;;;;8.00;8.00;;;;;28.42;39.14;100486.84;5007841;28;45518;-71
2022/06/23 12:24:10;;;;;;;;;8.00;7.00;;;;;28.51;38.89;100494.25;5006441;28;46954;-72
2022/06/23 12:27:07;;;;;;;;;9.50;7.50;;;;;28.57;38.59;100482.16;5012531;28;45471;-71
2022/06/23 12:30:10;;;;;;;;;9.00;9.00;;;;;28.58;38.38;100490.13;5011785;28;45530;-72